createdAt,value
2023-05-04T00:00:33.485Z,72.90
2023-05-04T00:03:01.826Z,72.90
2023-05-04T00:05:30.132Z,72.90
2023-05-04T00:07:59.691Z,72.90
2023-05-04T00:10:28.258Z,72.90
2023-05-04T00:12:56.644Z,72.90
2023-05-04T00:15:24.995Z,72.90
2023-05-04T00:17:53.213Z,72.90
2023-05-04T00:20:21.610Z,72.90
2023-05-04T00:22:49.858Z,72.90
2023-05-04T00:25:19.595Z,72.90
2023-05-04T00:27:47.753Z,72.90
2023-05-04T00:30:16.618Z,72.90
2023-05-04T00:32:44.834Z,72.90
2023-05-04T00:35:13.144Z,72.90
2023-05-04T00:37:43.767Z,72.90
2023-05-04T00:40:12.670Z,72.90
2023-05-04T00:42:42.115Z,72.80
2023-05-04T00:45:11.017Z,72.90
2023-05-04T00:47:39.213Z,72.90
2023-05-04T00:50:09.298Z,72.90
2023-05-04T00:52:38.642Z,72.90
2023-05-04T00:55:07.444Z,72.90
2023-05-04T00:57:35.686Z,72.90
2023-05-04T01:00:06.322Z,72.90
2023-05-04T01:02:34.828Z,72.90
2023-05-04T01:05:04.010Z,72.90
2023-05-04T01:07:48.440Z,72.90
2023-05-04T01:10:21.998Z,72.90
2023-05-04T01:12:53.692Z,72.90
2023-05-04T01:15:24.754Z,72.90
2023-05-04T01:17:52.817Z,72.90
2023-05-04T01:20:20.815Z,72.90
2023-05-04T01:22:50.188Z,72.90
2023-05-04T01:25:18.559Z,72.90
2023-05-04T01:27:48.002Z,72.90
2023-05-04T01:30:18.058Z,72.90
2023-05-04T01:32:46.390Z,72.90
2023-05-04T01:35:14.652Z,72.80
2023-05-04T01:37:42.816Z,72.80
2023-05-04T01:40:12.842Z,72.80
2023-05-04T01:42:40.805Z,72.80
2023-05-04T01:45:09.503Z,72.80
2023-05-04T01:47:37.490Z,72.80
2023-05-04T01:50:07.085Z,72.80
2023-05-04T01:52:35.132Z,72.80
2023-05-04T01:55:03.132Z,72.70
2023-05-04T01:57:32.477Z,72.70
2023-05-04T02:00:00.589Z,72.70
2023-05-04T02:02:28.625Z,72.70
2023-05-04T02:04:56.652Z,72.80
2023-05-04T02:07:24.606Z,72.80
2023-05-04T02:09:52.571Z,72.70
2023-05-04T02:12:20.550Z,72.70
2023-05-04T02:14:49.843Z,72.70
2023-05-04T02:17:17.863Z,72.70
2023-05-04T02:19:45.880Z,72.70
2023-05-04T02:22:13.953Z,72.70
2023-05-04T02:24:42.084Z,72.60
2023-05-04T02:27:10.151Z,72.60
2023-05-04T02:29:38.376Z,72.70
2023-05-04T02:32:07.861Z,72.60
2023-05-04T02:34:36.451Z,72.70
2023-05-04T02:37:07.116Z,72.60
2023-05-04T02:39:35.361Z,72.60
2023-05-04T02:42:03.351Z,72.60
2023-05-04T02:44:31.503Z,72.60
2023-05-04T02:46:59.455Z,72.60
2023-05-04T02:49:28.845Z,72.60
2023-05-04T02:51:56.795Z,72.60
2023-05-04T02:54:24.763Z,73.20
2023-05-04T02:56:52.691Z,72.60
2023-05-04T02:59:20.832Z,72.60
2023-05-04T03:01:48.888Z,72.60
2023-05-04T03:04:16.980Z,72.60
2023-05-04T03:06:47.503Z,72.60
2023-05-04T03:09:15.426Z,72.60
2023-05-04T03:11:43.447Z,72.60
2023-05-04T03:14:11.382Z,72.60
2023-05-04T03:16:39.444Z,72.50
2023-05-04T03:19:07.559Z,72.60
2023-05-04T03:21:35.592Z,72.60
2023-05-04T03:24:05.175Z,72.50
2023-05-04T03:26:33.068Z,72.50
2023-05-04T03:29:01.018Z,72.50
2023-05-04T03:31:29.104Z,72.50
2023-05-04T03:33:57.087Z,72.50
2023-05-04T03:36:25.037Z,72.50
2023-05-04T03:38:52.960Z,72.50
2023-05-04T03:41:22.286Z,72.50
2023-05-04T03:43:50.288Z,72.50
2023-05-04T03:46:18.408Z,72.50
2023-05-04T03:48:46.416Z,72.50
2023-05-04T03:51:14.471Z,72.50
2023-05-04T03:53:44.641Z,73.10
2023-05-04T03:56:13.037Z,72.50
2023-05-04T03:58:42.542Z,72.50
2023-05-04T04:01:10.669Z,72.50
2023-05-04T04:03:39.098Z,72.50
2023-05-04T04:06:08.633Z,72.50
2023-05-04T04:08:36.733Z,72.50
2023-05-04T04:11:04.823Z,72.50
2023-05-04T04:13:32.885Z,72.50
2023-05-04T04:16:02.265Z,72.50
2023-05-04T04:18:30.232Z,72.40
2023-05-04T04:20:58.284Z,72.50
2023-05-04T04:23:26.317Z,72.40
2023-05-04T04:25:54.514Z,72.40
2023-05-04T04:28:22.979Z,72.40
2023-05-04T04:30:50.947Z,72.40
2023-05-04T04:33:20.242Z,72.40
2023-05-04T04:35:48.246Z,72.40
2023-05-04T04:38:16.290Z,72.60
2023-05-04T04:40:44.330Z,72.40
2023-05-04T04:43:13.189Z,72.40
2023-05-04T04:45:41.575Z,72.40
2023-05-04T04:48:09.603Z,72.40
2023-05-04T04:50:40.845Z,72.40
2023-05-04T04:53:08.750Z,72.40
2023-05-04T04:55:36.807Z,72.40
2023-05-04T04:58:04.915Z,72.40
2023-05-04T05:00:32.914Z,72.40
2023-05-04T05:03:01.109Z,72.40
2023-05-04T05:05:31.545Z,72.40
2023-05-04T05:08:01.580Z,72.40
2023-05-04T05:10:29.642Z,72.40
2023-05-04T05:12:57.856Z,72.40
2023-05-04T05:15:25.899Z,72.40
2023-05-04T05:17:53.944Z,72.30
2023-05-04T05:20:22.059Z,72.40
2023-05-04T05:22:51.718Z,73.00
2023-05-04T05:25:21.216Z,72.30
2023-05-04T05:27:49.982Z,72.30
2023-05-04T05:30:18.054Z,72.30
2023-05-04T05:32:48.993Z,72.30
2023-05-04T05:35:17.496Z,72.30
2023-05-04T05:37:45.578Z,72.30
2023-05-04T05:40:14.302Z,72.30
2023-05-04T05:42:44.141Z,72.30
2023-05-04T05:45:13.064Z,72.40
2023-05-04T05:47:41.472Z,72.50
2023-05-04T05:50:09.875Z,72.60
2023-05-04T05:52:38.325Z,72.50
2023-05-04T05:55:06.996Z,72.50
2023-05-04T05:57:35.614Z,72.50
2023-05-04T06:00:06.224Z,72.50
2023-05-04T06:02:34.520Z,72.50
2023-05-04T06:05:02.976Z,72.50
2023-05-04T06:07:31.257Z,72.50
2023-05-04T06:09:59.364Z,72.40
2023-05-04T06:12:27.429Z,72.40
2023-05-04T06:14:55.580Z,72.40
2023-05-04T06:17:25.074Z,72.40
2023-05-04T06:19:53.135Z,72.40
2023-05-04T06:22:21.427Z,72.30
2023-05-04T06:24:49.662Z,72.30
2023-05-04T06:27:17.892Z,72.30
2023-05-04T06:29:46.688Z,72.30
2023-05-04T06:32:14.891Z,72.30
2023-05-04T06:34:44.556Z,72.20
2023-05-04T06:37:14.139Z,72.30
2023-05-04T06:39:44.169Z,72.20
2023-05-04T06:42:12.795Z,72.30
2023-05-04T06:44:40.838Z,72.30
2023-05-04T06:47:08.871Z,72.40
2023-05-04T06:49:37.577Z,72.40
2023-05-04T06:52:07.238Z,72.40
2023-05-04T06:54:35.809Z,72.30
2023-05-04T06:57:04.493Z,72.10
2023-05-04T06:59:32.566Z,72.10
2023-05-04T07:02:00.713Z,72.60
2023-05-04T07:04:28.807Z,72.20
2023-05-04T07:06:57.214Z,72.20
2023-05-04T07:09:26.885Z,72.20
2023-05-04T07:11:54.953Z,72.30
2023-05-04T07:14:22.970Z,72.10
2023-05-04T07:16:51.087Z,71.90
2023-05-04T07:19:19.186Z,71.90
2023-05-04T07:21:47.760Z,72.00
2023-05-04T07:24:15.852Z,72.10
2023-05-04T07:26:45.242Z,72.00
2023-05-04T07:29:13.326Z,72.10
2023-05-04T07:31:41.486Z,72.00
2023-05-04T07:34:09.576Z,72.00
2023-05-04T07:36:37.762Z,72.00
2023-05-04T07:39:05.789Z,72.00
2023-05-04T07:41:33.999Z,71.90
2023-05-04T07:44:05.725Z,71.90
2023-05-04T07:46:34.062Z,71.90
2023-05-04T07:49:03.293Z,71.90
2023-05-04T07:51:31.345Z,71.90
2023-05-04T07:54:00.170Z,71.90
2023-05-04T07:56:28.139Z,71.80
2023-05-04T07:58:56.159Z,71.70
2023-05-04T08:01:26.191Z,71.70
2023-05-04T08:03:54.296Z,71.70
2023-05-04T08:06:22.642Z,71.70
2023-05-04T08:08:52.714Z,71.80
2023-05-04T08:11:21.413Z,71.90
2023-05-04T08:13:49.918Z,71.90
2023-05-04T08:16:18.032Z,71.80
2023-05-04T08:18:47.448Z,71.80
2023-05-04T08:21:15.737Z,71.50
2023-05-04T08:23:43.759Z,71.40
2023-05-04T08:26:11.776Z,71.50
2023-05-04T08:28:40.660Z,71.40
2023-05-04T08:31:09.036Z,71.50
2023-05-04T08:33:37.108Z,71.50
2023-05-04T08:36:07.745Z,71.50
2023-05-04T08:38:35.934Z,71.60
2023-05-04T08:41:04.484Z,71.50
2023-05-04T08:43:32.841Z,71.40
2023-05-04T08:46:00.887Z,71.50
2023-05-04T08:48:29.013Z,71.50
2023-05-04T08:50:58.837Z,71.30
2023-05-04T08:53:28.446Z,71.30
2023-05-04T08:55:57.287Z,71.40
2023-05-04T08:58:26.222Z,71.50
2023-05-04T09:00:54.329Z,71.30
2023-05-04T09:03:22.871Z,71.30
2023-05-04T09:05:52.569Z,71.30
2023-05-04T09:08:21.247Z,71.30
2023-05-04T09:10:50.776Z,71.30
2023-05-04T09:13:18.844Z,71.30
2023-05-04T09:15:54.835Z,71.30
2023-05-04T09:18:23.190Z,71.30
2023-05-04T09:20:51.311Z,71.30
2023-05-04T09:23:19.830Z,71.30
2023-05-04T09:25:48.581Z,71.30
2023-05-04T09:28:18.323Z,71.30
2023-05-04T09:30:46.843Z,71.30
2023-05-04T09:33:14.941Z,71.30
2023-05-04T09:35:44.467Z,71.30
2023-05-04T09:38:12.536Z,71.30
2023-05-04T09:40:42.205Z,71.10
2023-05-04T09:43:10.895Z,71.10
2023-05-04T09:45:43.979Z,71.10
2023-05-04T09:48:19.239Z,71.00
2023-05-04T09:50:52.169Z,71.00
2023-05-04T09:53:22.179Z,71.00
2023-05-04T09:55:54.702Z,70.90
2023-05-04T09:58:22.932Z,70.90
2023-05-04T10:00:52.902Z,70.90
2023-05-04T10:03:21.184Z,70.90
2023-05-04T10:05:49.681Z,70.80
2023-05-04T10:08:18.249Z,70.80
2023-05-04T10:10:46.744Z,70.80
2023-05-04T10:13:14.926Z,70.80
2023-05-04T10:15:50.089Z,70.80
2023-05-04T10:18:25.582Z,71.40
2023-05-04T10:21:09.627Z,71.40
2023-05-04T10:24:07.507Z,70.70
2023-05-04T10:26:43.322Z,70.70
2023-05-04T10:29:14.480Z,70.70
2023-05-04T10:31:43.471Z,70.70
2023-05-04T10:34:13.297Z,70.70
2023-05-04T10:36:42.473Z,70.70
2023-05-04T10:39:18.902Z,70.60
2023-05-04T10:41:57.388Z,70.60
2023-05-04T10:44:25.486Z,70.60
2023-05-04T10:47:00.872Z,70.60
2023-05-04T10:49:30.540Z,70.50
2023-05-04T10:52:09.471Z,70.60
2023-05-04T10:54:37.749Z,70.60
2023-05-04T10:57:06.566Z,70.50
2023-05-04T10:59:36.612Z,70.60
2023-05-04T11:02:05.761Z,70.50
2023-05-04T11:04:35.727Z,70.50
2023-05-04T11:07:05.127Z,70.50
2023-05-04T11:09:36.905Z,70.40
2023-05-04T11:12:05.180Z,70.50
2023-05-04T11:14:37.821Z,70.40
2023-05-04T11:17:23.935Z,70.40
2023-05-04T11:19:56.180Z,70.40
2023-05-04T11:22:24.333Z,70.40
2023-05-04T11:24:54.259Z,70.40
2023-05-04T11:27:24.400Z,70.50
2023-05-04T11:29:58.616Z,70.40
2023-05-04T11:32:36.246Z,70.40
2023-05-04T11:35:06.815Z,70.30
2023-05-04T11:37:39.514Z,71.00
2023-05-04T11:40:10.902Z,70.50
2023-05-04T11:42:39.995Z,70.40
2023-05-04T11:45:09.806Z,70.50
2023-05-04T11:47:38.085Z,70.50
2023-05-04T11:50:08.581Z,70.60
2023-05-04T11:52:37.077Z,70.50
2023-05-04T11:55:05.565Z,70.30
2023-05-04T11:57:37.179Z,70.40
2023-05-04T12:00:06.987Z,70.40
2023-05-04T12:02:35.570Z,70.30
2023-05-04T12:05:05.474Z,70.40
2023-05-04T12:07:37.378Z,70.30
2023-05-04T12:10:05.956Z,70.90
2023-05-04T12:12:37.247Z,70.30
2023-05-04T12:15:05.860Z,70.40
2023-05-04T12:17:41.431Z,70.40
2023-05-04T12:20:09.903Z,70.40
2023-05-04T12:22:39.885Z,70.30
2023-05-04T12:25:09.371Z,70.30
2023-05-04T12:27:41.558Z,70.30
2023-05-04T12:30:10.133Z,70.20
2023-05-04T12:32:38.190Z,70.30
2023-05-04T12:35:06.953Z,70.20
2023-05-04T12:37:35.124Z,70.20
2023-05-04T12:40:11.299Z,70.10
2023-05-04T12:42:45.757Z,70.10
2023-05-04T12:45:14.307Z,70.10
2023-05-04T12:47:42.563Z,70.20
2023-05-04T12:50:11.233Z,70.90
2023-05-04T12:52:40.779Z,70.30
2023-05-04T12:55:10.652Z,70.80
2023-05-04T12:57:39.733Z,70.20
2023-05-04T13:00:10.145Z,70.00
2023-05-04T13:02:38.570Z,70.00
2023-05-04T13:05:07.575Z,70.10
2023-05-04T13:07:36.450Z,70.00
2023-05-04T13:10:05.011Z,70.00
2023-05-04T13:12:34.892Z,70.10
2023-05-04T13:15:03.238Z,70.10
2023-05-04T13:17:34.024Z,70.20
2023-05-04T13:20:04.880Z,70.20
2023-05-04T13:22:33.504Z,70.30
2023-05-04T13:25:01.520Z,70.20
2023-05-04T13:27:30.179Z,70.20
2023-05-04T13:30:02.063Z,70.00
2023-05-04T13:32:30.247Z,70.10
2023-05-04T13:34:58.628Z,70.10
2023-05-04T13:37:26.827Z,70.10
2023-05-04T13:39:54.977Z,70.00
2023-05-04T13:42:23.056Z,70.00
2023-05-04T13:44:51.398Z,70.00
2023-05-04T13:47:21.178Z,70.00
2023-05-04T13:49:49.353Z,70.10
2023-05-04T13:52:17.445Z,69.90
2023-05-04T13:54:45.597Z,70.00
2023-05-04T13:57:13.667Z,70.00
2023-05-04T13:59:48.792Z,70.00
2023-05-04T14:02:28.127Z,70.00
2023-05-04T14:04:56.175Z,70.00
2023-05-04T14:07:24.173Z,70.20
2023-05-04T14:09:52.423Z,70.00
2023-05-04T14:12:20.852Z,70.00
2023-05-04T14:14:49.019Z,70.00
2023-05-04T14:17:17.609Z,70.00
2023-05-04T14:19:47.243Z,70.00
2023-05-04T14:22:17.293Z,69.90
2023-05-04T14:24:45.535Z,69.90
2023-05-04T14:27:13.617Z,69.90
2023-05-04T14:29:41.823Z,69.90
2023-05-04T14:32:10.051Z,70.00
2023-05-04T14:34:38.214Z,70.00
2023-05-04T14:37:07.692Z,70.60
2023-05-04T14:39:36.592Z,70.10
2023-05-04T14:42:05.085Z,69.90
2023-05-04T14:44:33.178Z,70.00
2023-05-04T14:47:04.719Z,70.60
2023-05-04T14:49:37.261Z,70.00
2023-05-04T14:52:07.282Z,70.00
2023-05-04T14:54:35.360Z,70.00
2023-05-04T14:57:03.629Z,69.90
2023-05-04T14:59:31.657Z,69.80
2023-05-04T15:01:59.824Z,69.80
2023-05-04T15:04:27.829Z,69.80
2023-05-04T15:06:56.166Z,69.90
2023-05-04T15:09:25.634Z,69.80
2023-05-04T15:11:54.133Z,69.80
2023-05-04T15:14:22.346Z,69.90
2023-05-04T15:16:50.558Z,69.80
2023-05-04T15:19:18.744Z,69.80
2023-05-04T15:21:46.712Z,69.80
2023-05-04T15:24:14.709Z,69.70
2023-05-04T15:26:43.982Z,69.70
2023-05-04T15:29:12.090Z,69.70
2023-05-04T15:31:40.584Z,70.30
2023-05-04T15:34:08.705Z,69.70
2023-05-04T15:36:36.768Z,69.70
2023-05-04T15:39:05.637Z,69.70
2023-05-04T15:41:33.753Z,69.70
2023-05-04T15:44:03.309Z,69.70
2023-05-04T15:46:31.332Z,69.70
2023-05-04T15:48:59.406Z,69.70
2023-05-04T15:51:27.403Z,69.70
2023-05-04T15:53:55.350Z,69.70
2023-05-04T15:56:23.342Z,69.70
2023-05-04T15:58:51.500Z,69.70
2023-05-04T16:01:20.931Z,69.10
2023-05-04T16:03:49.048Z,69.70
2023-05-04T16:06:17.614Z,69.70
2023-05-04T16:08:45.894Z,69.60
2023-05-04T16:11:13.952Z,69.60
2023-05-04T16:13:41.955Z,69.60
2023-05-04T16:16:10.256Z,69.60
2023-05-04T16:18:39.710Z,69.60
2023-05-04T16:21:08.985Z,69.60
2023-05-04T16:23:37.005Z,69.60
2023-05-04T16:26:05.116Z,69.50
2023-05-04T16:28:33.131Z,69.60
2023-05-04T16:31:01.177Z,69.50
2023-05-04T16:33:29.204Z,69.60
2023-05-04T16:35:59.870Z,69.60
2023-05-04T16:38:27.960Z,69.50
2023-05-04T16:40:55.989Z,69.50
2023-05-04T16:43:24.092Z,69.50
2023-05-04T16:45:52.142Z,69.50
2023-05-04T16:48:20.304Z,69.50
2023-05-04T16:50:48.352Z,69.40
2023-05-04T16:53:17.743Z,69.50
2023-05-04T16:55:45.853Z,69.40
2023-05-04T16:58:13.901Z,69.40
2023-05-04T17:00:42.112Z,69.50
2023-05-04T17:03:10.279Z,69.50
2023-05-04T17:05:38.564Z,69.40
2023-05-04T17:08:06.759Z,69.40
2023-05-04T17:10:36.257Z,69.30
2023-05-04T17:13:04.349Z,69.40
2023-05-04T17:15:32.589Z,69.40
2023-05-04T17:18:01.369Z,69.40
2023-05-04T17:20:31.829Z,69.30
2023-05-04T17:23:00.039Z,69.40
2023-05-04T17:25:28.327Z,69.30
2023-05-04T17:27:57.989Z,69.30
2023-05-04T17:30:26.219Z,69.30
2023-05-04T17:32:55.763Z,69.30
2023-05-04T17:35:26.275Z,69.30
2023-05-04T17:37:57.916Z,69.30
2023-05-04T17:40:27.340Z,69.30
2023-05-04T17:42:57.500Z,69.30
2023-05-04T17:45:25.587Z,69.30
2023-05-04T17:47:54.538Z,69.30
2023-05-04T17:50:22.709Z,69.30
2023-05-04T17:52:54.232Z,69.30
2023-05-04T17:55:23.733Z,69.30
2023-05-04T17:57:52.091Z,69.30
2023-05-04T18:00:22.238Z,69.20
2023-05-04T18:02:50.590Z,69.20
2023-05-04T18:05:18.839Z,69.20
2023-05-04T18:07:47.016Z,69.20
2023-05-04T18:10:15.007Z,69.80
2023-05-04T18:12:43.081Z,69.20
2023-05-04T18:15:11.485Z,69.80
2023-05-04T18:17:41.081Z,69.20
2023-05-04T18:20:10.491Z,69.30
2023-05-04T18:22:38.644Z,69.30
2023-05-04T18:25:07.254Z,69.20
2023-05-04T18:27:36.272Z,69.30
2023-05-04T18:30:06.471Z,69.40
2023-05-04T18:32:34.893Z,69.50
2023-05-04T18:35:04.700Z,69.40
2023-05-04T18:37:32.922Z,69.40
2023-05-04T18:40:01.177Z,69.40
2023-05-04T18:42:29.677Z,69.40
2023-05-04T18:44:57.892Z,69.40
2023-05-04T18:47:25.804Z,69.40
2023-05-04T18:49:56.485Z,69.40
2023-05-04T18:52:26.168Z,69.30
2023-05-04T18:54:55.405Z,69.40
2023-05-04T18:57:23.467Z,69.40
2023-05-04T18:59:51.562Z,69.40
2023-05-04T19:02:19.618Z,69.40
2023-05-04T19:04:48.012Z,69.40
2023-05-04T19:07:17.186Z,69.40
2023-05-04T19:09:46.785Z,69.40
2023-05-04T19:12:15.627Z,69.40
2023-05-04T19:14:44.232Z,69.40
2023-05-04T19:17:14.670Z,69.40
2023-05-04T19:19:42.775Z,69.50
2023-05-04T19:22:11.623Z,69.50
2023-05-04T19:24:39.977Z,69.50
2023-05-04T19:27:09.538Z,69.50
2023-05-04T19:29:37.602Z,69.50
2023-05-04T19:32:19.925Z,69.50
2023-05-04T19:34:52.138Z,69.50
2023-05-04T19:37:20.172Z,69.60
2023-05-04T19:39:48.211Z,69.50
2023-05-04T19:42:17.705Z,69.50
2023-05-04T19:44:45.592Z,69.60
2023-05-04T19:47:13.828Z,69.60
2023-05-04T19:49:41.902Z,69.60
2023-05-04T19:52:09.954Z,69.60
2023-05-04T19:54:38.361Z,69.70
2023-05-04T19:57:06.476Z,69.70
2023-05-04T19:59:36.076Z,69.60
2023-05-04T20:02:04.102Z,69.60
2023-05-04T20:04:32.134Z,69.70
2023-05-04T20:07:00.167Z,69.70
2023-05-04T20:09:29.068Z,69.70
2023-05-04T20:11:57.165Z,69.70
2023-05-04T20:14:25.179Z,69.70
2023-05-04T20:16:55.943Z,69.70
2023-05-04T20:19:24.135Z,69.70
2023-05-04T20:21:52.130Z,69.80
2023-05-04T20:24:20.155Z,69.80
2023-05-04T20:26:48.199Z,69.80
2023-05-04T20:29:16.865Z,69.80
2023-05-04T20:31:44.946Z,69.80
2023-05-04T20:34:15.119Z,69.80
2023-05-04T20:36:46.191Z,69.80
2023-05-04T20:39:14.885Z,69.90
2023-05-04T20:41:42.844Z,69.90
2023-05-04T20:44:11.090Z,69.90
2023-05-04T20:46:39.161Z,69.90
2023-05-04T20:49:07.342Z,69.90
2023-05-04T20:51:39.227Z,69.90
2023-05-04T20:54:08.861Z,70.00
2023-05-04T20:56:37.987Z,70.00
2023-05-04T20:59:06.784Z,70.00
2023-05-04T21:01:34.837Z,70.00
2023-05-04T21:04:03.076Z,70.00
2023-05-04T21:06:31.337Z,70.00
2023-05-04T21:09:01.955Z,70.00
2023-05-04T21:11:29.950Z,70.00
2023-05-04T21:13:57.938Z,70.00
2023-05-04T21:16:26.191Z,70.10
2023-05-04T21:18:54.233Z,70.10
2023-05-04T21:21:22.247Z,70.10
2023-05-04T21:23:50.212Z,70.10
2023-05-04T21:26:19.627Z,70.10
2023-05-04T21:28:47.717Z,70.10
2023-05-04T21:31:15.793Z,70.10
2023-05-04T21:33:43.884Z,70.20
2023-05-04T21:36:12.855Z,70.20
2023-05-04T21:38:40.923Z,70.20
2023-05-04T21:41:12.703Z,70.20
2023-05-04T21:43:42.507Z,70.20
2023-05-04T21:46:12.096Z,70.20
2023-05-04T21:48:40.773Z,70.20
2023-05-04T21:51:08.763Z,70.30
2023-05-04T21:53:36.848Z,70.30
2023-05-04T21:56:07.648Z,70.30
2023-05-04T21:58:37.255Z,70.30
2023-05-04T22:01:06.777Z,70.30
2023-05-04T22:03:34.799Z,70.30
2023-05-04T22:06:02.859Z,70.30
2023-05-04T22:08:31.324Z,70.40
2023-05-04T22:10:59.740Z,70.40
2023-05-04T22:13:28.040Z,70.40
2023-05-04T22:15:56.214Z,70.40
2023-05-04T22:18:25.709Z,70.40
2023-05-04T22:20:53.842Z,70.40
2023-05-04T22:23:21.926Z,70.40
2023-05-04T22:25:50.141Z,70.40
2023-05-04T22:28:18.183Z,71.10
2023-05-04T22:30:46.336Z,70.50
2023-05-04T22:33:14.357Z,70.50
2023-05-04T22:35:43.891Z,70.50
2023-05-04T22:38:12.068Z,70.50
2023-05-04T22:40:40.606Z,70.50
2023-05-04T22:43:08.801Z,70.50
2023-05-04T22:45:36.975Z,70.60
2023-05-04T22:48:05.243Z,70.60
2023-05-04T22:50:33.766Z,70.60
2023-05-04T22:53:03.201Z,70.60
2023-05-04T22:55:31.364Z,70.60
2023-05-04T22:57:59.520Z,70.60
2023-05-04T23:00:27.651Z,70.60
2023-05-04T23:02:55.908Z,70.60
2023-05-04T23:05:24.022Z,70.70
2023-05-04T23:07:52.416Z,70.60
2023-05-04T23:10:22.070Z,70.70
2023-05-04T23:12:50.218Z,70.70
2023-05-04T23:15:18.311Z,70.70
2023-05-04T23:17:46.488Z,70.70
2023-05-04T23:20:14.618Z,70.70
2023-05-04T23:22:42.605Z,70.70
2023-05-04T23:25:11.000Z,70.70
2023-05-04T23:27:40.719Z,70.70
2023-05-04T23:30:09.770Z,70.80
2023-05-04T23:32:38.270Z,70.80
2023-05-04T23:35:06.876Z,70.80
2023-05-04T23:37:34.970Z,70.80
2023-05-04T23:40:03.157Z,70.90
2023-05-04T23:42:31.104Z,70.90
2023-05-04T23:45:00.484Z,70.90
2023-05-04T23:47:28.512Z,70.90
2023-05-04T23:49:56.807Z,70.90
2023-05-04T23:52:24.914Z,70.90
2023-05-04T23:54:53.739Z,70.90
2023-05-04T23:57:21.751Z,70.90
2023-05-04T23:59:49.841Z,70.90
